Time;durP1;ratioP1;P1;durP2;ratioP2;P2;SDS_P1;SDS_P2;PMS_P1;PMS_P2;Temp;Humidity;BMP_temperature;BMP_pressure;BME280_temperature;BME280_humidity;BME280_pressure;Samples;Min_cycle;Max_cycle;Signal;HPM_P1;HPM_P2
2021/09/10 00:02:13;;;;;;;27.25;12.30;;;;;;;-149.78;100.00;50088.13;5079858;28;20388;-59
2021/09/10 00:04:38;;;;;;;30.08;13.27;;;;;;;-149.78;100.00;50117.47;5084140;28;20032;-59
2021/09/10 00:07:04;;;;;;;22.40;12.00;;;;;;;-149.78;100.00;50133.09;5084214;28;20032;-59
2021/09/10 00:09:30;;;;;;;22.90;11.07;;;;;;;-149.78;100.00;50103.78;5066254;28;20032;-59
2021/09/10 00:11:56;;;;;;;22.77;11.65;;;;;;;-149.78;100.00;50103.78;5081908;28;20036;-59
2021/09/10 00:14:21;;;;;;;20.58;11.40;;;;;;;-149.78;100.00;50084.22;5065387;28;20479;-59
2021/09/10 00:16:47;;;;;;;19.63;10.98;;;;;;;-149.78;100.00;50117.47;5080937;28;20028;-59
2021/09/10 00:19:13;;;;;;;24.27;12.13;;;;;;;-149.78;100.00;50119.41;5083021;28;20033;-59
2021/09/10 00:21:38;;;;;;;25.85;12.05;;;;;;;-149.78;100.00;50095.94;5076467;28;20042;-59
2021/09/10 00:24:05;;;;;;;24.98;12.35;;;;;;;-149.78;100.00;50129.19;5087823;28;20139;-59
2021/09/10 00:26:30;;;;;;;23.15;12.07;;;;;;;-149.78;100.00;50095.94;5085305;28;20116;-59
2021/09/10 00:28:56;;;;;;;27.40;13.32;;;;;;;-149.78;100.00;50088.13;5077912;28;20113;-59
2021/09/10 00:31:21;;;;;;;28.00;13.23;;;;;;;-149.78;100.00;50115.50;5085682;28;20476;-59
2021/09/10 00:33:47;;;;;;;25.58;12.77;;;;;;;-149.78;100.00;50099.88;5077466;28;20055;-59
2021/09/10 00:36:13;;;;;;;24.17;12.52;;;;;;;-149.78;100.00;50117.47;5086918;28;20040;-59
2021/09/10 00:38:39;;;;;;;28.50;13.27;;;;;;;-149.78;100.00;50107.69;5087884;28;20043;-59
2021/09/10 00:41:04;;;;;;;23.42;12.40;;;;;;;-149.78;100.00;50119.41;5084566;28;20445;-59
2021/09/10 00:43:30;;;;;;;29.63;13.52;;;;;;;-149.78;100.00;50125.28;5072290;28;20037;-59
2021/09/10 00:45:59;;;;;;;30.27;13.05;;;;;;;-149.78;100.00;50137.03;5079072;28;20048;-59
2021/09/10 00:48:26;;;;;;;27.17;13.70;;;;;;;-149.78;100.00;50097.91;5084346;28;20020;-59
2021/09/10 00:50:53;;;;;;;29.15;13.02;;;;;;;-149.78;100.00;50142.88;5078930;28;20396;-59
2021/09/10 00:53:19;;;;;;;28.90;13.77;;;;;;;-149.78;100.00;50162.44;5079484;28;20455;-59
2021/09/10 00:55:46;;;;;;;30.02;13.40;;;;;;;-149.78;100.00;50135.06;5078431;28;20063;-59
2021/09/10 00:58:12;;;;;;;28.15;13.45;;;;;;;-149.78;100.00;50156.56;5082135;28;20105;-59
2021/09/10 01:00:38;;;;;;;27.08;13.68;;;;;;;-149.78;100.00;50160.50;5061089;28;20028;-59
2021/09/10 01:03:04;;;;;;;29.80;13.45;;;;;;;-149.78;100.00;50133.09;5090422;28;20028;-59
2021/09/10 01:05:29;;;;;;;28.27;14.07;;;;;;;-149.78;100.00;50138.97;5083276;28;20036;-59
2021/09/10 01:07:57;;;;;;;27.67;12.80;;;;;;;-149.78;100.00;50115.50;5085631;28;20028;-59
2021/09/10 01:10:24;;;;;;;28.13;13.10;;;;;;;-149.78;100.00;50123.34;5082937;28;20085;-59
2021/09/10 01:12:50;;;;;;;33.75;14.25;;;;;;;-149.78;100.00;50119.41;5080372;28;20039;-59
2021/09/10 01:15:17;;;;;;;30.20;13.43;;;;;;;-149.78;100.00;50138.97;5066505;28;20484;-59
2021/09/10 01:17:42;;;;;;;27.90;13.20;;;;;;;-149.78;100.00;50103.78;5079428;28;20156;-59
2021/09/10 01:20:09;;;;;;;25.40;12.70;;;;;;;-149.78;100.00;50135.06;5075407;28;20036;-59
2021/09/10 01:22:35;;;;;;;27.85;13.68;;;;;;;-149.78;100.00;50113.56;5088175;28;20067;-59
2021/09/10 01:25:16;;;;;;;27.35;13.43;;;;;;;-149.78;100.00;50150.72;5093264;28;20032;-59
2021/09/10 01:27:46;;;;;;;31.02;13.90;;;;;;;-149.78;100.00;50113.56;5093274;28;20379;-59
2021/09/10 01:30:16;;;;;;;28.52;13.75;;;;;;;-149.78;100.00;50138.97;5085614;28;20407;-59
2021/09/10 01:32:42;;;;;;;28.52;13.70;;;;;;;-149.78;100.00;50117.47;5088251;28;20506;-59
2021/09/10 01:35:09;;;;;;;27.88;13.50;;;;;;;-149.78;100.00;50133.09;5085435;28;20063;-60
2021/09/10 01:37:35;;;;;;;26.48;13.50;;;;;;;-149.78;100.00;50117.47;5093675;28;20036;-60
2021/09/10 01:40:01;;;;;;;22.10;11.93;;;;;;;-149.78;100.00;50105.72;5076666;28;20035;-59
2021/09/10 01:42:26;;;;;;;22.05;11.48;;;;;;;-149.78;100.00;50131.16;5084207;28;20041;-59
2021/09/10 01:44:52;;;;;;;23.08;12.18;;;;;;;-149.78;100.00;50158.53;5073426;28;20040;-59
2021/09/10 01:47:18;;;;;;;21.80;11.52;;;;;;;-149.78;100.00;50162.44;5092578;28;20463;-59
2021/09/10 01:49:43;;;;;;;20.75;10.70;;;;;;;-149.78;100.00;50119.41;5093760;28;20028;-59
2021/09/10 01:52:09;;;;;;;20.65;10.30;;;;;;;-149.78;100.00;50129.19;5092290;28;20032;-59
2021/09/10 01:54:35;;;;;;;19.05;9.40;;;;;;;-149.78;100.00;50119.41;5083733;28;20060;-59
2021/09/10 01:57:01;;;;;;;19.95;9.73;;;;;;;-149.78;100.00;50148.75;5076885;28;20032;-59
2021/09/10 01:59:27;;;;;;;22.02;11.00;;;;;;;-149.78;100.00;50109.66;5089611;28;20550;-60
2021/09/10 02:01:52;;;;;;;19.88;9.82;;;;;;;-149.78;100.00;50154.63;5087844;28;20077;-59
2021/09/10 02:04:19;;;;;;;19.65;9.35;;;;;;;-149.78;100.00;50131.16;5081196;28;20032;-59
2021/09/10 02:06:45;;;;;;;18.67;10.48;;;;;;;-149.78;100.00;50131.16;5094344;28;20494;-60
2021/09/10 02:09:12;;;;;;;18.17;10.00;;;;;;;-149.78;100.00;50103.78;5086195;28;20408;-60
2021/09/10 02:11:37;;;;;;;21.20;10.57;;;;;;;-149.78;100.00;50123.34;5061650;28;20033;-59
2021/09/10 02:14:03;;;;;;;22.15;11.40;;;;;;;-149.78;100.00;50146.81;5079954;28;20081;-59
2021/09/10 02:16:30;;;;;;;22.33;11.52;;;;;;;-149.78;100.00;50117.47;5085435;28;20044;-59
2021/09/10 02:18:56;;;;;;;22.42;11.13;;;;;;;-149.78;100.00;50158.53;5084319;28;20036;-60
2021/09/10 02:21:22;;;;;;;23.67;10.85;;;;;;;-149.78;100.00;50162.44;5082678;28;20055;-60
2021/09/10 02:23:48;;;;;;;24.30;11.43;;;;;;;-149.78;100.00;50138.97;5070003;28;20495;-59
2021/09/10 02:26:13;;;;;;;23.13;11.63;;;;;;;-149.78;100.00;50142.88;5087634;28;20043;-59
2021/09/10 02:28:39;;;;;;;21.50;11.68;;;;;;;-149.78;100.00;50150.72;5084063;28;20028;-59
2021/09/10 02:31:05;;;;;;;22.88;12.02;;;;;;;-149.78;100.00;50138.97;5089488;28;20040;-60
2021/09/10 02:33:31;;;;;;;20.88;10.80;;;;;;;-149.78;100.00;50127.25;5081452;28;20036;-59
2021/09/10 02:35:56;;;;;;;24.75;12.35;;;;;;;-149.78;100.00;50142.88;5081219;28;20510;-60
2021/09/10 02:38:23;;;;;;;20.90;10.48;;;;;;;-149.78;100.00;50133.09;5077680;28;20036;-60
2021/09/10 02:40:49;;;;;;;18.23;9.40;;;;;;;-149.78;100.00;50135.06;5090485;28;20082;-60
2021/09/10 02:43:15;;;;;;;16.52;9.05;;;;;;;-149.78;100.00;50154.63;5094008;28;20036;-60
2021/09/10 02:45:40;;;;;;;16.48;9.00;;;;;;;-149.78;100.00;50131.16;5052394;28;20494;-60
2021/09/10 02:48:06;;;;;;;16.83;8.85;;;;;;;-149.78;100.00;50146.81;5085361;28;20036;-59
2021/09/10 02:50:31;;;;;;;17.15;8.95;;;;;;;-149.78;100.00;50119.41;5083156;28;20032;-59
2021/09/10 02:52:57;;;;;;;17.23;9.57;;;;;;;-149.78;100.00;50142.88;5090073;28;20043;-59
2021/09/10 02:55:23;;;;;;;16.17;9.32;;;;;;;-149.78;100.00;50119.41;5068417;28;20114;-60
2021/09/10 02:57:48;;;;;;;15.88;8.85;;;;;;;-149.78;100.00;50154.63;5091417;28;20115;-60
2021/09/10 03:00:14;;;;;;;14.95;8.13;;;;;;;-149.78;100.00;50146.81;5086869;28;20040;-60
2021/09/10 03:02:39;;;;;;;14.77;7.10;;;;;;;-149.78;100.00;50158.53;5082322;28;20033;-59
2021/09/10 03:05:06;;;;;;;13.05;7.78;;;;;;;-149.78;100.00;50166.34;5083547;28;20066;-59
2021/09/10 03:07:31;;;;;;;15.48;7.05;;;;;;;-149.78;100.00;50150.72;5086437;28;20066;-59
2021/09/10 03:09:57;;;;;;;13.18;7.22;;;;;;;-149.78;100.00;50137.03;5092546;28;20052;-59
2021/09/10 03:12:23;;;;;;;13.23;7.93;;;;;;;-149.78;100.00;50158.53;5088814;28;20383;-60
2021/09/10 03:14:48;;;;;;;11.52;7.20;;;;;;;-149.78;100.00;50135.06;5088034;28;20505;-59
2021/09/10 03:17:14;;;;;;;13.55;7.57;;;;;;;-149.78;100.00;50142.88;5081007;28;20040;-59
2021/09/10 03:19:40;;;;;;;12.13;6.95;;;;;;;-149.78;100.00;50129.19;5077963;28;20028;-59
2021/09/10 03:22:08;;;;;;;11.93;6.47;;;;;;;-149.78;100.00;50131.16;5063988;28;20036;-59
2021/09/10 03:24:33;;;;;;;10.93;6.13;;;;;;;-149.78;100.00;50201.56;5075713;28;20036;-59
2021/09/10 03:26:59;;;;;;;9.77;6.18;;;;;;;-149.78;100.00;50131.16;5088930;28;20043;-59
2021/09/10 03:29:25;;;;;;;13.95;7.25;;;;;;;-149.78;100.00;50162.44;5089633;28;20040;-59
2021/09/10 03:31:51;;;;;;;12.25;6.30;;;;;;;-149.78;100.00;50150.72;5087880;28;20035;-59
2021/09/10 03:34:16;;;;;;;12.00;6.43;;;;;;;-149.78;100.00;50123.34;5086541;28;20055;-59
2021/09/10 03:36:42;;;;;;;10.05;5.75;;;;;;;-149.78;100.00;50162.44;5053821;28;20024;-60
2021/09/10 03:39:08;;;;;;;11.10;5.85;;;;;;;-149.78;100.00;50140.94;5088543;28;20089;-59
2021/09/10 03:41:33;;;;;;;11.88;5.75;;;;;;;-149.78;100.00;50135.06;5083580;28;20369;-59
2021/09/10 03:43:59;;;;;;;11.10;6.18;;;;;;;-149.78;100.00;50174.19;5090844;28;20032;-59
2021/09/10 03:46:24;;;;;;;10.93;5.88;;;;;;;-149.78;100.00;50154.63;5089496;28;20047;-59
2021/09/10 03:48:51;;;;;;;12.45;5.95;;;;;;;-149.78;100.00;50142.88;5080576;28;20077;-59
2021/09/10 03:51:17;;;;;;;11.02;6.45;;;;;;;-149.78;100.00;50166.34;5084568;28;20429;-59
2021/09/10 03:53:43;;;;;;;10.48;6.15;;;;;;;-149.78;100.00;50146.81;5083893;28;20036;-59
2021/09/10 03:56:08;;;;;;;11.80;5.50;;;;;;;-149.78;100.00;50168.31;5090683;28;20035;-59
2021/09/10 03:58:34;;;;;;;11.50;6.40;;;;;;;-149.78;100.00;50174.19;5083035;28;20115;-59
2021/09/10 04:01:00;;;;;;;12.63;6.07;;;;;;;-149.78;100.00;50158.53;5092893;28;20040;-59
2021/09/10 04:03:25;;;;;;;12.77;6.40;;;;;;;-149.78;100.00;50170.25;5091637;28;20043;-59
2021/09/10 04:05:51;;;;;;;13.23;6.32;;;;;;;-149.78;100.00;50166.34;5090301;28;20035;-59
2021/09/10 04:08:16;;;;;;;10.88;5.80;;;;;;;-149.78;100.00;50170.25;5076637;28;20036;-59
2021/09/10 04:10:43;;;;;;;12.90;6.25;;;;;;;-149.78;100.00;50158.53;5060999;28;20119;-59
2021/09/10 04:13:09;;;;;;;10.43;6.70;;;;;;;-149.78;100.00;50178.09;5083251;28;20074;-59
2021/09/10 04:15:34;;;;;;;11.68;6.70;;;;;;;-149.78;100.00;50182.00;5090058;28;20552;-59
2021/09/10 04:18:01;;;;;;;11.70;6.57;;;;;;;-149.78;100.00;50146.81;5080146;28;20163;-59
2021/09/10 04:20:27;;;;;;;12.77;6.65;;;;;;;-149.78;100.00;50189.81;5088751;28;20106;-59
2021/09/10 04:22:53;;;;;;;13.25;6.60;;;;;;;-149.78;100.00;50135.06;5078286;28;20150;-59
2021/09/10 04:25:19;;;;;;;11.10;6.50;;;;;;;-149.78;100.00;50150.72;5080199;28;20040;-59
2021/09/10 04:27:44;;;;;;;11.68;5.82;;;;;;;-149.78;100.00;50144.84;5075251;28;20105;-59
2021/09/10 04:30:10;;;;;;;10.60;6.05;;;;;;;-149.78;100.00;50154.63;5080292;28;20040;-59
2021/09/10 04:32:37;;;;;;;7.88;5.68;;;;;;;-149.78;100.00;50123.34;5084468;28;20044;-59
2021/09/10 04:35:04;;;;;;;11.40;6.35;;;;;;;-149.78;100.00;50162.44;5084049;28;20039;-59
2021/09/10 04:37:30;;;;;;;8.77;5.13;;;;;;;-149.78;100.00;50170.25;5085439;28;20455;-58
2021/09/10 04:39:55;;;;;;;7.40;5.05;;;;;;;-149.78;100.00;50146.81;5095073;28;20039;-59
2021/09/10 04:42:21;;;;;;;8.00;5.03;;;;;;;-149.78;100.00;50154.63;5093394;28;20479;-59
2021/09/10 04:44:47;;;;;;;7.10;4.75;;;;;;;-149.78;100.00;50164.41;5076965;28;20660;-59
2021/09/10 04:47:13;;;;;;;8.48;5.38;;;;;;;-149.78;100.00;50146.81;5095670;28;20058;-59
2021/09/10 04:49:39;;;;;;;7.05;4.85;;;;;;;-149.78;100.00;50174.19;5095121;28;20031;-59
2021/09/10 04:52:06;;;;;;;6.05;4.60;;;;;;;-149.78;100.00;50135.06;5077179;28;20028;-59
2021/09/10 04:54:32;;;;;;;6.82;4.93;;;;;;;-149.78;100.00;50174.19;5095347;28;20474;-59
2021/09/10 04:56:58;;;;;;;10.52;4.68;;;;;;;-149.78;100.00;50138.97;5088723;28;20035;-59
2021/09/10 04:59:23;;;;;;;7.93;4.68;;;;;;;-149.78;100.00;50148.75;5094236;28;20104;-59
2021/09/10 05:01:50;;;;;;;7.72;5.03;;;;;;;-149.78;100.00;50127.25;5087909;28;20506;-59
2021/09/10 05:04:15;;;;;;;7.28;4.80;;;;;;;-149.78;100.00;50185.91;5087520;28;20103;-59
2021/09/10 05:06:41;;;;;;;8.05;4.95;;;;;;;-149.78;100.00;50131.16;5081335;28;20043;-59
2021/09/10 05:09:07;;;;;;;7.35;4.82;;;;;;;-149.78;100.00;50162.44;5081435;28;20454;-59
2021/09/10 05:11:32;;;;;;;7.97;5.10;;;;;;;-149.78;100.00;50154.63;5056858;28;20082;-60
2021/09/10 05:13:58;;;;;;;9.55;4.97;;;;;;;-149.78;100.00;50158.53;5081198;28;20032;-59
2021/09/10 05:16:24;;;;;;;7.68;5.03;;;;;;;-149.78;100.00;50170.25;5084100;28;20043;-59
2021/09/10 05:18:50;;;;;;;8.07;4.50;;;;;;;-149.78;100.00;50119.41;5081473;28;20033;-59
2021/09/10 05:21:15;;;;;;;7.97;4.60;;;;;;;-149.78;100.00;50158.53;5078950;28;20024;-59
2021/09/10 05:23:41;;;;;;;12.98;5.68;;;;;;;-149.78;100.00;50168.31;5086228;28;20044;-59
2021/09/10 05:26:07;;;;;;;10.93;5.78;;;;;;;-149.78;100.00;50170.25;5085481;28;20082;-59
2021/09/10 05:28:33;;;;;;;9.98;5.68;;;;;;;-149.78;100.00;50166.34;5085786;28;20537;-59
2021/09/10 05:30:59;;;;;;;9.50;5.65;;;;;;;-149.78;100.00;50185.91;5080519;28;20051;-59
2021/09/10 05:33:25;;;;;;;10.50;6.28;;;;;;;-149.78;100.00;50154.63;5089488;28;20036;-59
2021/09/10 05:35:51;;;;;;;11.07;6.85;;;;;;;-149.78;100.00;50182.00;5083300;28;20038;-59
2021/09/10 05:38:18;;;;;;;10.82;6.57;;;;;;;-149.78;100.00;50150.72;5087232;28;20036;-59
2021/09/10 05:40:43;;;;;;;11.60;6.30;;;;;;;-149.78;100.00;50162.44;5078915;28;20033;-59
2021/09/10 05:43:09;;;;;;;10.23;6.35;;;;;;;-149.78;100.00;50170.25;5079775;28;20080;-59
2021/09/10 05:45:35;;;;;;;12.75;7.60;;;;;;;-149.78;100.00;50182.00;5079399;28;20388;-58
2021/09/10 05:48:01;;;;;;;11.63;6.78;;;;;;;-149.78;100.00;50180.03;5080055;28;20032;-59
2021/09/10 05:50:27;;;;;;;12.52;6.88;;;;;;;-149.78;100.00;50162.44;5078118;28;20493;-59
2021/09/10 05:52:52;;;;;;;12.45;7.82;;;;;;;-149.78;100.00;50158.53;5075841;28;20447;-59
2021/09/10 05:55:18;;;;;;;11.75;7.00;;;;;;;-149.78;100.00;50170.25;5075232;28;20040;-59
2021/09/10 05:57:44;;;;;;;11.93;6.45;;;;;;;-149.78;100.00;50144.84;5085747;28;20028;-59
2021/09/10 06:00:11;;;;;;;11.85;7.40;;;;;;;-149.78;100.00;50146.81;5082592;28;20414;-59
2021/09/10 06:02:40;;;;;;;12.07;6.88;;;;;;;-149.78;100.00;50180.03;5076596;28;20544;-59
2021/09/10 06:05:06;;;;;;;14.75;7.78;;;;;;;-149.78;100.00;50158.53;5066208;28;20086;-59
2021/09/10 06:07:32;;;;;;;13.75;7.68;;;;;;;-149.78;100.00;50135.06;5094541;28;20076;-59
2021/09/10 06:09:58;;;;;;;12.45;7.03;;;;;;;-149.78;100.00;50142.88;5091410;28;20434;-59
2021/09/10 06:12:24;;;;;;;13.48;7.68;;;;;;;-149.78;100.00;50138.97;5091670;28;20040;-59
2021/09/10 06:14:53;;;;;;;13.85;7.47;;;;;;;-149.78;100.00;50164.41;5090829;28;20244;-58
2021/09/10 06:17:20;;;;;;;11.88;7.22;;;;;;;-149.78;100.00;50135.06;5092081;28;20127;-58
2021/09/10 06:19:46;;;;;;;12.63;7.57;;;;;;;-149.78;100.00;50138.97;5092073;28;20115;-59
2021/09/10 06:22:13;;;;;;;12.63;6.65;;;;;;;-149.78;100.00;50150.72;5088320;28;20028;-59
2021/09/10 06:24:39;;;;;;;12.68;7.20;;;;;;;-149.78;100.00;50154.63;5081313;28;20048;-59
2021/09/10 06:27:05;;;;;;;13.23;7.35;;;;;;;-149.78;100.00;50162.44;5090510;28;20035;-59
2021/09/10 06:29:31;;;;;;;11.45;6.93;;;;;;;-149.78;100.00;50174.19;5093121;28;20080;-58
2021/09/10 06:31:57;;;;;;;10.95;7.30;;;;;;;-149.78;100.00;50162.44;5085021;28;20035;-65
2021/09/10 06:34:23;;;;;;;11.73;6.85;;;;;;;-149.78;100.00;50178.09;5062521;28;20024;-66
2021/09/10 06:36:49;;;;;;;9.80;5.90;;;;;;;-149.78;100.00;50158.53;5092564;28;20032;-66
2021/09/10 06:39:16;;;;;;;10.65;6.70;;;;;;;-149.78;100.00;50174.19;5071221;28;20036;-66
2021/09/10 06:41:43;;;;;;;10.18;6.10;;;;;;;-149.78;100.00;50166.34;5091033;28;20032;-65
2021/09/10 06:44:09;;;;;;;12.98;6.53;;;;;;;-149.78;100.00;50123.34;5088712;28;20039;-65
2021/09/10 06:46:35;;;;;;;9.63;5.50;;;;;;;-149.78;100.00;50123.34;5084592;28;20032;-65
2021/09/10 06:49:02;;;;;;;8.52;5.20;;;;;;;-149.78;100.00;50133.09;5088255;28;20095;-65
2021/09/10 06:51:28;;;;;;;8.98;5.22;;;;;;;-149.78;100.00;50135.06;5070265;28;20032;-67
2021/09/10 06:53:53;;;;;;;8.15;4.68;;;;;;;-149.78;100.00;50107.69;5093527;28;20032;-64
2021/09/10 06:56:19;;;;;;;9.98;4.55;;;;;;;-149.78;100.00;50142.88;5088600;28;20060;-64
2021/09/10 06:58:45;;;;;;;7.20;4.47;;;;;;;-149.78;100.00;50138.97;5088038;28;20039;-64
2021/09/10 07:01:12;;;;;;;5.63;3.88;;;;;;;-149.78;100.00;50140.94;5089416;28;20036;-64
2021/09/10 07:03:37;;;;;;;7.22;4.00;;;;;;;-149.78;100.00;50152.66;5086476;28;20036;-64
2021/09/10 07:06:03;;;;;;;6.53;3.70;;;;;;;-149.78;100.00;50144.84;5082215;28;20037;-64
2021/09/10 07:08:31;;;;;;;5.07;3.70;;;;;;;-149.78;100.00;50162.44;5093205;28;20031;-64
2021/09/10 07:10:57;;;;;;;6.63;3.85;;;;;;;-149.78;100.00;50160.50;5087928;28;20024;-64
2021/09/10 07:13:23;;;;;;;7.40;3.88;;;;;;;-149.78;100.00;50152.66;5074400;28;20031;-64
2021/09/10 07:15:49;;;;;;;6.60;3.72;;;;;;;-149.78;100.00;50127.25;5082782;28;20067;-63
2021/09/10 07:18:15;;;;;;;4.22;2.85;;;;;;;-149.78;100.00;50162.44;5084609;28;20040;-64
2021/09/10 07:20:42;;;;;;;6.30;2.90;;;;;;;-149.78;100.00;50138.97;5083237;28;20031;-64
2021/09/10 07:23:08;;;;;;;8.02;3.00;;;;;;;-149.78;100.00;50156.56;5067331;28;20471;-64
2021/09/10 07:25:34;;;;;;;3.85;2.65;;;;;;;-149.78;100.00;50138.97;5070784;28;20452;-64
2021/09/10 07:28:00;;;;;;;5.05;3.20;;;;;;;-149.78;100.00;50154.63;5047242;28;20048;-65
2021/09/10 07:30:25;;;;;;;6.32;3.38;;;;;;;-149.78;100.00;50088.13;5089013;28;20020;-64
2021/09/10 07:32:51;;;;;;;4.50;2.67;;;;;;;-149.78;100.00;50095.94;5090002;28;20384;-64
2021/09/10 07:35:17;;;;;;;5.20;2.75;;;;;;;-149.78;100.00;50088.13;5070598;28;20526;-64
2021/09/10 07:37:45;;;;;;;4.72;2.70;;;;;;;-149.78;100.00;50050.97;5084360;28;20039;-64
2021/09/10 07:40:11;;;;;;;5.05;2.70;;;;;;;-149.78;100.00;50115.50;5085760;28;20074;-64
2021/09/10 07:42:37;;;;;;;7.10;2.75;;;;;;;-149.78;100.00;50068.56;5079500;28;20108;-64
2021/09/10 07:45:03;;;;;;;4.55;2.78;;;;;;;-149.78;100.00;50111.59;5088035;28;20471;-64
2021/09/10 07:47:28;;;;;;;4.47;3.08;;;;;;;-149.78;100.00;50078.34;5078157;28;20051;-64
2021/09/10 07:49:54;;;;;;;3.72;2.58;;;;;;;-149.78;100.00;50107.69;5086844;28;20468;-64
2021/09/10 07:52:20;;;;;;;4.40;2.30;;;;;;;-149.78;100.00;50060.75;5079947;28;20444;-64
2021/09/10 07:54:46;;;;;;;5.53;2.25;;;;;;;-149.78;100.00;49990.34;5080294;28;20475;-64
2021/09/10 07:57:11;;;;;;;3.35;2.20;;;;;;;-149.78;100.00;49986.44;5078795;28;20475;-64
2021/09/10 07:59:38;;;;;;;3.05;2.10;;;;;;;-149.78;95.94;49939.50;5086054;28;20048;-64
2021/09/10 08:02:04;;;;;;;3.03;1.98;;;;;;;-149.78;83.34;49982.53;5078131;28;20066;-64
2021/09/10 08:04:29;;;;;;;3.22;2.28;;;;;;;-149.78;84.35;49961.03;5080981;28;20036;-63
2021/09/10 08:06:55;;;;;;;3.15;2.10;;;;;;;-149.78;94.22;50015.78;5092524;28;20536;-62
2021/09/10 08:09:21;;;;;;;3.25;2.00;;;;;;;-149.78;100.00;50017.72;5078376;28;20028;-62
2021/09/10 08:11:47;;;;;;;3.47;1.90;;;;;;;-149.78;100.00;50078.34;5079611;28;20035;-63
2021/09/10 08:14:13;;;;;;;3.13;2.20;;;;;;;-149.78;100.00;50084.22;5085318;28;20040;-62
2021/09/10 08:16:39;;;;;;;3.53;2.35;;;;;;;-149.78;100.00;50088.13;5069229;28;20035;-62
2021/09/10 08:19:05;;;;;;;3.17;2.15;;;;;;;-149.78;100.00;50064.66;5094065;28;20047;-64
2021/09/10 08:21:31;;;;;;;6.97;2.40;;;;;;;-149.78;100.00;50107.69;5087408;28;20041;-64
2021/09/10 08:23:56;;;;;;;3.05;2.00;;;;;;;-149.78;100.00;50101.81;5078779;28;20098;-64
2021/09/10 08:26:22;;;;;;;7.80;2.88;;;;;;;-149.78;100.00;50103.78;5074974;28;20082;-64
2021/09/10 08:28:48;;;;;;;5.35;3.50;;;;;;;-149.78;100.00;50095.94;5079021;28;20036;-64
2021/09/10 08:31:15;;;;;;;2.67;2.10;;;;;;;-149.78;100.00;50088.13;5091926;28;20036;-64
2021/09/10 08:33:41;;;;;;;4.57;2.50;;;;;;;-149.78;100.00;50090.09;5084415;28;20097;-64
2021/09/10 08:36:06;;;;;;;4.28;2.25;;;;;;;-149.78;100.00;50138.97;5082489;28;20433;-64
2021/09/10 08:38:32;;;;;;;4.13;2.58;;;;;;;-149.78;100.00;50092.03;5086939;28;20433;-64
2021/09/10 08:41:01;;;;;;;4.53;2.40;;;;;;;-149.78;100.00;50103.78;5074564;28;20056;-64
2021/09/10 08:43:27;;;;;;;5.10;2.65;;;;;;;-149.78;100.00;50123.34;5085088;28;20047;-64
2021/09/10 08:45:57;;;;;;;4.45;2.47;;;;;;;-149.78;100.00;50095.94;5064859;28;20033;-63
2021/09/10 08:48:24;;;;;;;3.88;2.30;;;;;;;-149.78;100.00;50111.59;5065717;28;20031;-65
2021/09/10 08:50:50;;;;;;;4.97;2.88;;;;;;;-149.78;100.00;50099.88;5066428;28;20029;-64
2021/09/10 08:53:16;;;;;;;3.28;2.50;;;;;;;-149.78;100.00;50123.34;5074985;28;20391;-65
2021/09/10 08:55:43;;;;;;;2.92;2.50;;;;;;;-149.78;100.00;50131.16;5075860;28;20039;-64
2021/09/10 08:58:09;;;;;;;3.90;2.50;;;;;;;-149.78;100.00;50138.97;5089341;28;20032;-64
2021/09/10 09:00:37;;;;;;;5.03;3.10;;;;;;;-149.78;100.00;50111.59;5090208;28;20032;-64
2021/09/10 09:03:05;;;;;;;5.05;2.78;;;;;;;-149.78;100.00;50095.94;5086960;28;20026;-64
2021/09/10 09:05:32;;;;;;;4.55;2.90;;;;;;;-149.78;100.00;50095.94;5078828;28;20034;-65
2021/09/10 09:08:13;;;;;;;4.72;2.72;;;;;;;-149.78;100.00;50121.38;5087818;28;20119;-65
2021/09/10 09:10:49;;;;;;;6.25;2.80;;;;;;;-149.78;100.00;50121.38;5079912;28;20424;-65
2021/09/10 09:13:15;;;;;;;4.28;2.40;;;;;;;-149.78;100.00;50064.66;5084812;28;20032;-64
2021/09/10 09:15:40;;;;;;;9.15;2.72;;;;;;;-149.78;100.00;50072.50;5067373;28;20028;-64
2021/09/10 09:18:06;;;;;;;4.80;2.40;;;;;;;-149.78;100.00;50109.66;5087092;28;20036;-64
2021/09/10 09:20:34;;;;;;;3.15;2.08;;;;;;;-149.78;100.00;50095.94;5076325;28;20032;-66
2021/09/10 09:23:04;;;;;;;2.60;2.13;;;;;;;-149.78;100.00;50111.59;5088682;28;20040;-65
2021/09/10 09:25:41;;;;;;;3.17;2.10;;;;;;;-149.78;100.00;50072.50;5091963;28;20043;-64
2021/09/10 09:28:24;;;;;;;3.85;2.38;;;;;;;-149.78;100.00;50123.34;5085155;28;20512;-64
2021/09/10 09:30:55;;;;;;;2.67;2.17;;;;;;;-149.78;100.00;50052.94;5087596;28;20020;-64
2021/09/10 09:33:28;;;;;;;;;;;;;;;-149.78;100.00;50064.66;5091118;28;20491;-65
2021/09/10 09:35:58;;;;;;;3.27;1.77;;;;;;;-149.78;100.00;50076.41;5082962;28;19912;-66
2021/09/10 09:38:26;;;;;;;2.50;2.00;;;;;;;-149.78;100.00;50084.22;5088020;28;20605;-65
2021/09/10 09:40:55;;;;;;;2.33;1.98;;;;;;;-149.78;100.00;50031.41;5056555;28;20025;-65
2021/09/10 09:43:23;;;;;;;2.45;1.73;;;;;;;-149.78;100.00;50029.47;5087546;28;20036;-65
2021/09/10 09:45:54;;;;;;;3.67;2.00;;;;;;;-149.78;100.00;49978.63;5086033;28;20032;-65
2021/09/10 09:48:23;;;;;;;1.98;1.52;;;;;;;-149.78;78.13;49968.84;5084082;28;20085;-65
2021/09/10 09:50:52;;;;;;;2.33;1.48;;;;;;;-149.78;70.06;49949.28;5080328;28;20037;-65
2021/09/10 09:53:19;;;;;;;2.30;1.40;;;;;;;-149.78;67.80;49984.50;5089309;28;20131;-67
2021/09/10 09:55:47;;;;;;;4.75;1.45;;;;;;;-149.78;71.64;49974.72;5089515;28;20028;-66
2021/09/10 09:58:16;;;;;;;1.75;1.50;;;;;;;-149.78;80.12;50025.56;5092005;28;20127;-66
2021/09/10 10:00:44;;;;;;;2.50;1.48;;;;;;;-149.78;85.19;49990.34;5073238;28;20118;-66
2021/09/10 10:03:10;;;;;;;2.17;1.70;;;;;;;-149.78;95.67;50017.72;5083425;28;20174;-65
2021/09/10 10:05:54;;;;;;;3.88;1.65;;;;;;;-149.78;100.00;50017.72;5083168;28;20356;-65
2021/09/10 10:09:00;;;;;;;1.50;1.38;;;;;;;-149.78;94.82;50002.09;5085899;28;20475;-65
2021/09/10 10:11:31;;;;;;;1.83;1.20;;;;;;;-149.78;89.47;49990.34;5082480;28;20388;-66
2021/09/10 10:13:59;;;;;;;1.80;1.25;;;;;;;-149.78;88.56;50009.91;5080881;28;20024;-66
2021/09/10 10:16:42;;;;;;;1.58;1.42;;;;;;;-149.78;89.61;49994.25;5080599;28;20040;-67
2021/09/10 10:19:20;;;;;;;1.90;1.42;;;;;;;-149.78;91.13;50054.88;5077534;28;20116;-66
2021/09/10 10:21:56;;;;;;;1.60;1.40;;;;;;;-149.78;99.20;50006.00;5086348;28;20039;-66
2021/09/10 10:24:45;;;;;;;1.88;1.45;;;;;;;-149.78;100.00;50037.28;5079605;28;20051;-66
2021/09/10 10:27:36;;;;;;;2.42;1.80;;;;;;;-149.78;100.00;50045.09;5082691;28;20016;-65
2021/09/10 10:30:19;;;;;;;2.72;1.90;;;;;;;-149.78;100.00;50047.06;5091459;28;20050;-66
2021/09/10 10:32:47;;;;;;;2.92;2.13;;;;;;;-149.78;100.00;50058.78;5072307;28;20107;-65
2021/09/10 10:35:12;;;;;;;2.97;1.95;;;;;;;-149.78;100.00;50054.88;5080249;28;20036;-65
2021/09/10 10:37:43;;;;;;;4.10;2.28;;;;;;;-149.78;100.00;50033.38;5085525;28;20039;-65
2021/09/10 10:40:33;;;;;;;2.33;1.90;;;;;;;-149.78;100.00;50033.38;5071255;28;20032;-65
2021/09/10 10:43:03;;;;;;;2.60;1.85;;;;;;;-149.78;100.00;50076.41;5092497;28;20073;-65
2021/09/10 10:45:47;;;;;;;2.75;1.73;;;;;;;-149.78;100.00;50033.38;5089964;28;20383;-66
2021/09/10 10:48:31;;;;;;;3.10;1.85;;;;;;;-149.78;100.00;50021.63;5087188;28;20059;-66
2021/09/10 10:51:24;;;;;;;2.13;1.60;;;;;;;-149.78;98.39;50017.72;5079712;28;20035;-65
2021/09/10 10:53:52;;;;;;;2.03;1.80;;;;;;;-149.78;88.08;50041.19;5090338;28;20058;-66
2021/09/10 10:56:24;;;;;;;2.22;1.92;;;;;;;-149.78;91.43;50049.03;5087128;28;20039;-66
2021/09/10 10:59:15;;;;;;;2.75;2.20;;;;;;;-149.78;94.31;50039.25;5082840;28;20025;-65
2021/09/10 11:02:35;;;;;;;3.08;2.10;;;;;;;-149.78;100.00;50023.59;5061506;28;20479;-66
2021/09/10 11:05:07;;;;;;;2.22;1.80;;;;;;;-149.78;100.00;50029.47;5079663;28;20079;-67
2021/09/10 11:07:33;;;;;;;3.47;2.28;;;;;;;-149.78;100.00;50033.38;5075654;28;20032;-66